createdAt,value
2019-02-11T00:01:29.946Z,1.00
2019-02-11T00:03:59.798Z,1.10
2019-02-11T00:06:24.848Z,1.30
2019-02-11T00:08:51.196Z,1.50
2019-02-11T00:11:17.624Z,1.60
2019-02-11T00:13:43.970Z,1.60
2019-02-11T00:16:10.344Z,1.90
2019-02-11T00:18:38.672Z,2.10
2019-02-11T00:21:05.373Z,2.40
2019-02-11T00:23:32.112Z,2.30
2019-02-11T00:28:26.283Z,2.50
2019-02-11T00:30:52.917Z,2.60
2019-02-11T00:33:21.499Z,2.80
2019-02-11T00:35:49.319Z,3.00
2019-02-11T00:38:16.256Z,2.90
2019-02-11T00:40:45.325Z,3.10
2019-02-11T00:43:18.991Z,3.10
2019-02-11T00:45:45.153Z,3.30
2019-02-11T00:48:12.102Z,3.40
2019-02-11T00:50:38.655Z,3.40
2019-02-11T00:53:04.895Z,3.50
2019-02-11T00:55:31.418Z,3.60
2019-02-11T00:57:57.818Z,3.80
2019-02-11T01:00:27.409Z,3.70
2019-02-11T01:02:53.628Z,4.10
2019-02-11T01:05:19.883Z,3.80
2019-02-11T01:07:46.266Z,4.00
2019-02-11T01:10:12.798Z,3.70
2019-02-11T01:12:39.248Z,4.10
2019-02-11T01:15:06.905Z,3.90
2019-02-11T01:17:35.092Z,4.40
2019-02-11T01:20:04.805Z,4.00
2019-02-11T01:22:31.400Z,4.10
2019-02-11T01:25:02.047Z,4.30
2019-02-11T01:27:30.567Z,4.00
2019-02-11T01:29:59.774Z,4.00
2019-02-11T01:37:19.362Z,4.10
2019-02-11T01:39:45.915Z,4.00
2019-02-11T01:42:12.333Z,4.00
2019-02-11T01:44:38.645Z,4.00
2019-02-11T01:47:05.077Z,4.00
2019-02-11T01:51:59.117Z,4.30
2019-02-11T01:54:26.782Z,3.90
2019-02-11T01:56:53.193Z,3.90
2019-02-11T01:59:19.778Z,3.70
2019-02-11T02:01:45.977Z,3.80
2019-02-11T02:04:12.219Z,3.80
2019-02-11T02:06:38.660Z,3.80
2019-02-11T02:09:05.451Z,3.70
2019-02-11T02:11:31.879Z,3.80
2019-02-11T02:13:58.387Z,3.80
2019-02-11T02:16:24.769Z,3.80
2019-02-11T02:18:51.147Z,3.70
2019-02-11T02:21:17.553Z,3.70
2019-02-11T02:23:43.993Z,4.10
2019-02-11T02:26:10.334Z,3.70
2019-02-11T02:28:36.589Z,3.80
2019-02-11T02:31:02.950Z,3.80
2019-02-11T02:33:29.268Z,3.60
2019-02-11T02:35:55.520Z,3.60
2019-02-11T02:38:21.852Z,3.60
2019-02-11T02:40:48.127Z,3.70
2019-02-11T02:43:14.475Z,3.70
2019-02-11T02:50:33.946Z,3.70
2019-02-11T02:53:00.174Z,3.90
2019-02-11T02:55:26.509Z,3.80
2019-02-11T02:57:52.657Z,3.90
2019-02-11T03:00:19.024Z,3.90
2019-02-11T03:02:45.524Z,4.00
2019-02-11T03:05:11.794Z,3.80
2019-02-11T03:07:38.117Z,4.00
2019-02-11T03:10:05.783Z,3.80
2019-02-11T03:12:32.170Z,3.80
2019-02-11T03:14:58.427Z,3.80
2019-02-11T03:17:24.665Z,3.90
2019-02-11T03:19:50.977Z,4.10
2019-02-11T03:22:17.563Z,4.00
2019-02-11T03:24:44.040Z,4.10
2019-02-11T03:27:10.353Z,3.70
2019-02-11T03:29:36.899Z,4.00
2019-02-11T03:32:03.484Z,4.10
2019-02-11T03:34:29.792Z,4.20
2019-02-11T03:36:56.056Z,4.30
2019-02-11T03:39:22.566Z,4.20
2019-02-11T03:44:15.586Z,4.30
2019-02-11T03:49:08.511Z,4.70
2019-02-11T03:51:34.799Z,4.40
2019-02-11T03:54:01.942Z,4.40
2019-02-11T04:03:47.946Z,4.50
2019-02-11T04:08:40.951Z,4.50
2019-02-11T04:11:07.407Z,4.50
2019-02-11T04:16:00.253Z,4.70
2019-02-11T04:18:26.538Z,4.70
2019-02-11T04:20:52.834Z,4.60
2019-02-11T04:23:19.155Z,4.20
2019-02-11T04:25:45.425Z,4.50
2019-02-11T04:28:11.950Z,4.60
2019-02-11T04:30:38.320Z,4.60
2019-02-11T04:33:04.770Z,4.70
2019-02-11T04:35:31.166Z,4.70
2019-02-11T04:37:57.458Z,4.80
2019-02-11T04:42:50.520Z,5.00
2019-02-11T04:45:17.063Z,5.00
2019-02-11T04:52:36.690Z,5.00
2019-02-11T04:55:09.244Z,5.00
2019-02-11T04:57:35.616Z,5.00
2019-02-11T05:02:28.505Z,5.00
2019-02-11T05:04:54.771Z,5.10
2019-02-11T05:12:14.754Z,4.90
2019-02-11T05:14:43.909Z,5.00
2019-02-11T05:17:09.166Z,5.00
2019-02-11T05:22:02.385Z,4.90
2019-02-11T05:24:28.748Z,5.10
2019-02-11T05:34:14.868Z,5.00
2019-02-11T05:36:43.592Z,5.00
2019-02-11T05:44:05.796Z,5.00
2019-02-11T05:46:31.725Z,5.00
2019-02-11T05:51:24.482Z,5.10
2019-02-11T05:58:44.789Z,5.00
2019-02-11T06:01:15.474Z,5.00
2019-02-11T06:03:42.206Z,5.10
2019-02-11T06:08:35.101Z,5.10
2019-02-11T06:11:01.693Z,5.10
2019-02-11T06:13:27.958Z,5.00
2019-02-11T06:15:54.264Z,5.10
2019-02-11T06:18:20.727Z,5.00
2019-02-11T06:20:47.010Z,4.90
2019-02-11T06:28:06.406Z,5.10
2019-02-11T06:30:32.662Z,4.80
2019-02-11T06:32:58.969Z,5.00
2019-02-11T06:37:52.140Z,5.00
2019-02-11T06:40:18.696Z,4.90
2019-02-11T06:42:45.124Z,4.60
2019-02-11T06:45:13.429Z,4.90
2019-02-11T06:54:59.617Z,4.90
2019-02-11T06:57:27.065Z,5.00
2019-02-11T06:59:53.308Z,4.90
2019-02-11T07:04:46.252Z,4.90
2019-02-11T07:09:39.717Z,5.00
2019-02-11T07:16:59.151Z,5.10
2019-02-11T07:21:52.024Z,5.00
2019-02-11T07:29:11.641Z,5.60
2019-02-11T07:31:39.482Z,5.20
2019-02-11T07:34:06.663Z,5.20
2019-02-11T07:36:33.022Z,5.10
2019-02-11T07:38:59.945Z,5.00
2019-02-11T07:46:25.886Z,5.30
2019-02-11T07:48:52.411Z,4.80
2019-02-11T07:51:18.779Z,5.20
2019-02-11T07:53:45.196Z,5.10
2019-02-11T07:58:39.834Z,5.20
2019-02-11T08:01:06.433Z,5.20
2019-02-11T08:03:32.770Z,5.10
2019-02-11T08:08:25.844Z,5.10
2019-02-11T08:10:52.775Z,5.00
2019-02-11T08:18:14.420Z,5.00
2019-02-11T08:20:42.094Z,5.00
2019-02-11T08:23:12.931Z,5.00
2019-02-11T08:25:36.833Z,5.00
2019-02-11T08:28:03.567Z,5.00
2019-02-11T08:30:30.169Z,5.00
2019-02-11T08:32:57.441Z,5.00
2019-02-11T08:35:23.747Z,5.00
2019-02-11T08:37:50.118Z,5.30
2019-02-11T08:45:10.094Z,5.00
2019-02-11T08:50:04.292Z,4.90
2019-02-11T08:52:30.545Z,4.90
2019-02-11T08:57:25.382Z,4.90
2019-02-11T08:59:52.776Z,4.90
2019-02-11T09:02:19.144Z,4.90
2019-02-11T09:04:45.383Z,4.80
2019-02-11T09:12:05.255Z,4.70
2019-02-11T09:19:24.800Z,4.80
2019-02-11T09:24:18.865Z,4.80
2019-02-11T09:31:38.705Z,4.80
2019-02-11T09:36:31.579Z,4.70
2019-02-11T09:38:57.871Z,4.60
2019-02-11T09:43:52.200Z,4.70
2019-02-11T09:48:44.946Z,4.50
2019-02-11T09:53:38.105Z,5.00
2019-02-11T09:56:04.426Z,5.00
2019-02-11T09:58:30.882Z,5.00
2019-02-11T10:00:59.267Z,4.90
2019-02-11T10:05:51.993Z,5.00
2019-02-11T10:08:18.377Z,5.00
2019-02-11T10:13:11.627Z,5.10
2019-02-11T10:20:31.069Z,5.20
2019-02-11T10:22:57.287Z,5.10
2019-02-11T10:25:24.986Z,5.20
2019-02-11T10:27:52.059Z,5.30
2019-02-11T10:30:18.516Z,5.30
2019-02-11T10:32:44.947Z,5.30
2019-02-11T10:35:11.683Z,5.20
2019-02-11T10:42:32.144Z,5.30
2019-02-11T10:44:58.403Z,5.30
2019-02-11T10:47:25.681Z,5.10
2019-02-11T10:49:53.431Z,5.30
2019-02-11T10:52:21.015Z,5.30
2019-02-11T10:57:14.024Z,5.20
2019-02-11T10:59:40.289Z,5.30
2019-02-11T11:02:08.608Z,5.30
2019-02-11T11:04:35.384Z,5.40
2019-02-11T11:09:28.368Z,5.20
2019-02-11T11:16:48.026Z,5.20
2019-02-11T11:19:14.190Z,5.30
2019-02-11T11:24:07.347Z,5.50
2019-02-11T11:26:33.824Z,5.20
2019-02-11T11:31:27.308Z,5.50
2019-02-11T11:41:13.514Z,5.30
2019-02-11T11:43:40.048Z,5.40
2019-02-11T11:48:33.289Z,5.40
2019-02-11T11:50:59.670Z,5.40
2019-02-11T11:53:25.987Z,5.20
2019-02-11T11:55:52.362Z,5.40
2019-02-11T12:10:33.822Z,5.20
2019-02-11T12:20:21.040Z,5.30
2019-02-11T12:22:47.573Z,5.40
2019-02-11T12:25:15.735Z,5.40
2019-02-11T12:30:10.168Z,5.30
2019-02-11T12:35:04.668Z,5.50
2019-02-11T12:37:31.016Z,5.10
2019-02-11T12:39:57.438Z,5.40
2019-02-11T12:42:23.777Z,5.20
2019-02-11T12:47:16.839Z,5.40
2019-02-11T12:49:43.472Z,5.40
2019-02-11T12:52:09.829Z,5.40
2019-02-11T12:54:36.135Z,5.30
2019-02-11T12:59:29.087Z,5.50
2019-02-11T13:01:55.599Z,5.30
2019-02-11T13:04:22.154Z,5.90
2019-02-11T13:06:49.199Z,5.60
2019-02-11T13:09:15.822Z,5.80
2019-02-11T13:11:44.042Z,6.10
2019-02-11T13:31:23.129Z,7.70
2019-02-11T13:36:16.210Z,7.60
2019-02-11T13:41:09.224Z,7.20
2019-02-11T13:43:35.532Z,7.50
2019-02-11T13:50:58.077Z,7.50
2019-02-11T13:55:51.299Z,7.40
2019-02-11T13:58:17.759Z,7.10
2019-02-11T14:03:13.032Z,7.60
2019-02-11T14:08:07.911Z,7.50
2019-02-11T14:10:34.496Z,7.80
2019-02-11T14:25:40.477Z,7.20
2019-02-11T14:27:51.648Z,7.30
2019-02-11T14:32:45.161Z,7.60
2019-02-11T14:35:11.564Z,7.40
2019-02-11T14:37:38.696Z,7.30
2019-02-11T14:40:09.805Z,6.90
2019-02-11T14:42:37.068Z,7.40
2019-02-11T14:52:23.310Z,7.40
2019-02-11T14:57:16.318Z,7.40
2019-02-11T14:59:42.617Z,7.50
2019-02-11T15:04:35.888Z,7.20
2019-02-11T15:09:29.397Z,7.00
2019-02-11T15:14:22.567Z,6.70
2019-02-11T15:19:16.249Z,6.70
2019-02-11T15:21:42.632Z,6.60
2019-02-11T15:24:09.175Z,6.60
2019-02-11T15:26:35.504Z,6.10
2019-02-11T15:38:48.180Z,5.30
2019-02-11T15:43:42.793Z,5.40
2019-02-11T15:48:42.994Z,5.50
2019-02-11T15:58:24.537Z,4.80
2019-02-11T16:00:50.956Z,4.60
2019-02-11T16:03:17.494Z,4.60
2019-02-11T16:05:49.660Z,4.60
2019-02-11T16:08:14.313Z,4.60
2019-02-11T16:10:40.741Z,4.50
2019-02-11T16:15:34.989Z,4.40
2019-02-11T16:25:28.044Z,4.20
2019-02-11T16:37:41.549Z,4.10
2019-02-11T16:40:12.637Z,4.10
2019-02-11T16:42:39.281Z,3.90
2019-02-11T16:47:32.648Z,4.10
2019-02-11T16:57:21.563Z,3.90
2019-02-11T17:07:11.460Z,4.20
2019-02-11T17:12:04.819Z,4.00
2019-02-11T17:14:31.089Z,4.10
2019-02-11T17:16:57.343Z,3.90
2019-02-11T17:19:23.664Z,4.00
2019-02-11T17:21:50.447Z,4.00
2019-02-11T17:26:45.210Z,4.20
2019-02-11T17:31:38.081Z,3.90
2019-02-11T17:36:36.712Z,3.90
2019-02-11T17:41:30.616Z,4.20
2019-02-11T17:43:58.656Z,4.00
2019-02-11T17:46:25.324Z,3.90
2019-02-11T17:48:51.612Z,3.90
2019-02-11T17:53:45.369Z,3.80
2019-02-11T17:58:38.822Z,3.80
2019-02-11T18:06:00.310Z,3.70
2019-02-11T18:13:19.739Z,3.70
2019-02-11T18:15:46.074Z,3.60
2019-02-11T18:23:06.013Z,3.50
2019-02-11T18:25:32.368Z,3.70
2019-02-11T18:27:59.568Z,3.70
2019-02-11T18:32:57.275Z,3.70
2019-02-11T18:35:23.624Z,3.60
2019-02-11T18:37:52.129Z,3.70
2019-02-11T18:42:46.967Z,3.50
2019-02-11T18:50:08.198Z,3.40
2019-02-11T18:52:34.426Z,3.30
2019-02-11T18:55:01.018Z,3.50
2019-02-11T18:57:27.265Z,3.20
2019-02-11T18:59:57.176Z,3.30
2019-02-11T19:02:23.877Z,3.40
2019-02-11T19:09:43.705Z,3.30
2019-02-11T19:14:37.101Z,3.20
2019-02-11T19:17:03.713Z,3.40
2019-02-11T19:21:57.013Z,3.20
2019-02-11T19:24:23.433Z,3.60
2019-02-11T19:29:17.177Z,3.20
2019-02-11T19:34:11.570Z,3.20
2019-02-11T19:36:39.212Z,3.30
2019-02-11T19:39:06.382Z,3.20
2019-02-11T19:51:24.181Z,3.30
2019-02-11T19:56:17.873Z,3.70
2019-02-11T19:58:45.002Z,3.50
2019-02-11T20:01:11.930Z,3.40
2019-02-11T20:03:42.001Z,3.40
2019-02-11T20:08:35.834Z,3.30
2019-02-11T20:11:02.073Z,3.40
2019-02-11T20:13:35.937Z,3.30
2019-02-11T20:16:02.539Z,3.40
2019-02-11T20:21:02.165Z,3.30
2019-02-11T20:23:32.509Z,3.40
2019-02-11T20:25:59.108Z,3.30
2019-02-11T20:30:53.273Z,3.20
2019-02-11T20:33:20.651Z,3.20
2019-02-11T20:35:47.183Z,3.20
2019-02-11T20:38:13.428Z,3.00
2019-02-11T20:40:39.834Z,3.00
2019-02-11T20:43:06.050Z,3.10
2019-02-11T20:47:58.971Z,2.80
2019-02-11T20:50:25.654Z,2.80
2019-02-11T20:52:52.608Z,2.80
2019-02-11T20:55:19.272Z,2.80
2019-02-11T20:57:47.195Z,2.70
2019-02-11T21:00:17.250Z,2.70
2019-02-11T21:02:43.616Z,2.70
2019-02-11T21:10:08.190Z,2.60
2019-02-11T21:15:01.136Z,2.60
2019-02-11T21:17:27.684Z,2.60
2019-02-11T21:19:53.948Z,2.80
2019-02-11T21:22:20.278Z,2.90
2019-02-11T21:24:47.303Z,2.70
2019-02-11T21:27:13.804Z,3.00
2019-02-11T21:29:39.970Z,2.60
2019-02-11T21:32:07.956Z,2.60
2019-02-11T21:37:01.391Z,2.70
2019-02-11T21:39:27.903Z,2.80
2019-02-11T21:41:54.150Z,2.70
2019-02-11T21:46:47.007Z,2.80
2019-02-11T21:51:40.092Z,2.70
2019-02-11T21:54:06.283Z,2.70
2019-02-11T21:56:32.516Z,2.70
2019-02-11T22:01:25.411Z,2.50
2019-02-11T22:03:52.096Z,2.60
2019-02-11T22:06:20.609Z,2.70
2019-02-11T22:11:14.611Z,2.60
2019-02-11T22:16:07.554Z,2.90
2019-02-11T22:18:33.921Z,2.80
2019-02-11T22:21:00.609Z,2.80
2019-02-11T22:23:26.846Z,2.70
2019-02-11T22:25:53.217Z,2.60
2019-02-11T22:28:19.689Z,2.60
2019-02-11T22:30:46.055Z,2.60
2019-02-11T22:33:13.043Z,2.60
2019-02-11T22:35:39.315Z,2.60
2019-02-11T22:38:05.707Z,2.60
2019-02-11T22:40:32.680Z,2.80
2019-02-11T22:42:58.916Z,2.60
2019-02-11T22:45:25.982Z,2.70
2019-02-11T22:47:52.352Z,2.70
2019-02-11T22:50:21.471Z,2.70
2019-02-11T22:52:47.939Z,2.40
2019-02-11T22:55:14.448Z,2.70
2019-02-11T22:57:40.807Z,2.80
2019-02-11T23:00:18.386Z,2.70
2019-02-11T23:02:44.775Z,2.50
2019-02-11T23:05:11.388Z,2.50
2019-02-11T23:07:37.563Z,2.60
2019-02-11T23:10:04.355Z,2.70
2019-02-11T23:17:24.008Z,2.70
2019-02-11T23:19:50.319Z,2.80
2019-02-11T23:22:20.763Z,2.80
2019-02-11T23:24:47.063Z,3.00
2019-02-11T23:27:13.430Z,2.80
2019-02-11T23:29:39.786Z,2.60
2019-02-11T23:32:06.193Z,2.70
2019-02-11T23:34:32.702Z,2.80
2019-02-11T23:36:59.255Z,2.80
2019-02-11T23:39:25.655Z,2.80
2019-02-11T23:41:52.060Z,2.70
2019-02-11T23:46:45.293Z,2.70
2019-02-11T23:49:11.730Z,2.60
2019-02-11T23:51:38.072Z,2.70
2019-02-11T23:54:04.496Z,2.90
2019-02-11T23:56:30.945Z,2.50
2019-02-11T23:58:57.528Z,2.80
